createdAt,value
2018-03-02T00:00:47.108Z,12.05
2018-03-02T00:03:16.957Z,13.23
2018-03-02T00:05:46.604Z,10.23
2018-03-02T00:08:16.385Z,11.38
2018-03-02T00:10:49.367Z,13.40
2018-03-02T00:13:19.099Z,13.40
2018-03-02T00:15:49.014Z,13.23
2018-03-02T00:18:18.765Z,11.85
2018-03-02T00:20:48.571Z,12.80
2018-03-02T00:23:18.325Z,12.30
2018-03-02T00:25:48.780Z,13.60
2018-03-02T00:28:18.668Z,13.80
2018-03-02T00:30:48.432Z,12.48
2018-03-02T00:33:18.271Z,12.68
2018-03-02T00:35:48.016Z,13.27
2018-03-02T00:38:18.465Z,12.70
2018-03-02T00:40:48.336Z,13.07
2018-03-02T00:43:18.032Z,12.45
2018-03-02T00:45:48.552Z,13.95
2018-03-02T00:48:18.376Z,12.65
2018-03-02T00:50:48.148Z,13.13
2018-03-02T00:53:17.929Z,13.77
2018-03-02T00:55:47.732Z,12.23
2018-03-02T00:58:17.485Z,12.05
2018-03-02T01:00:48.078Z,13.88
2018-03-02T01:03:17.839Z,12.00
2018-03-02T01:05:47.534Z,13.27
2018-03-02T01:08:17.298Z,13.27
2018-03-02T01:10:47.913Z,13.45
2018-03-02T01:13:17.658Z,14.45
2018-03-02T01:15:47.507Z,12.23
2018-03-02T01:18:17.315Z,13.85
2018-03-02T01:20:48.039Z,13.45
2018-03-02T01:23:17.924Z,13.88
2018-03-02T01:25:47.761Z,14.35
2018-03-02T01:28:17.478Z,13.65
2018-03-02T01:30:47.224Z,14.95
2018-03-02T01:33:16.937Z,15.55
2018-03-02T01:35:47.592Z,12.48
2018-03-02T01:38:17.387Z,13.90
2018-03-02T01:40:47.152Z,12.85
2018-03-02T01:43:16.825Z,15.15
2018-03-02T01:45:46.746Z,13.68
2018-03-02T01:48:16.417Z,14.48
2018-03-02T01:50:46.133Z,14.63
2018-03-02T01:53:15.831Z,13.02
2018-03-02T01:55:45.571Z,15.98
2018-03-02T01:58:15.407Z,14.07
2018-03-02T02:00:45.960Z,14.63
2018-03-02T02:03:16.502Z,12.15
2018-03-02T02:05:47.369Z,14.23
2018-03-02T02:08:17.022Z,14.82
2018-03-02T02:10:46.843Z,14.20
2018-03-02T02:13:16.651Z,15.27
2018-03-02T02:15:46.404Z,14.23
2018-03-02T02:18:16.365Z,14.80
2018-03-02T02:20:46.809Z,15.93
2018-03-02T02:23:17.303Z,14.73
2018-03-02T02:25:47.008Z,16.27
2018-03-02T02:28:17.058Z,15.10
2018-03-02T02:30:46.820Z,13.65
2018-03-02T02:33:16.525Z,15.38
2018-03-02T02:35:46.403Z,12.93
2018-03-02T02:38:16.217Z,15.90
2018-03-02T02:40:45.914Z,13.18
2018-03-02T02:43:16.393Z,15.77
2018-03-02T02:45:46.153Z,16.23
2018-03-02T02:48:15.877Z,15.95
2018-03-02T02:50:45.763Z,13.62
2018-03-02T02:53:15.467Z,14.95
2018-03-02T02:55:45.134Z,15.10
2018-03-02T02:58:15.340Z,13.20
2018-03-02T03:00:45.096Z,14.23
2018-03-02T03:03:14.958Z,15.00
2018-03-02T03:05:44.723Z,16.00
2018-03-02T03:08:15.340Z,15.20
2018-03-02T03:10:45.029Z,16.48
2018-03-02T03:13:15.604Z,13.35
2018-03-02T03:15:45.292Z,16.65
2018-03-02T03:18:15.818Z,16.33
2018-03-02T03:20:45.475Z,15.18
2018-03-02T03:23:15.298Z,16.95
2018-03-02T03:25:45.021Z,11.32
2018-03-02T03:28:14.864Z,15.60
2018-03-02T03:30:44.688Z,15.98
2018-03-02T03:33:14.456Z,15.98
2018-03-02T03:35:45.220Z,16.58
2018-03-02T03:38:14.927Z,14.98
2018-03-02T03:40:45.545Z,14.40
2018-03-02T03:43:15.404Z,16.37
2018-03-02T03:45:52.517Z,14.00
2018-03-02T03:48:22.191Z,16.50
2018-03-02T03:50:51.961Z,13.40
2018-03-02T03:53:21.859Z,17.42
2018-03-02T03:55:52.348Z,14.80
2018-03-02T03:58:22.081Z,17.62
2018-03-02T04:00:51.802Z,15.55
2018-03-02T04:03:21.582Z,15.95
2018-03-02T04:05:51.517Z,16.95
2018-03-02T04:08:21.279Z,14.55
2018-03-02T04:10:51.081Z,16.98
2018-03-02T04:13:20.867Z,13.55
2018-03-02T04:15:51.355Z,18.17
2018-03-02T04:18:21.205Z,17.33
2018-03-02T04:20:50.951Z,17.48
2018-03-02T04:23:20.656Z,15.20
2018-03-02T04:25:50.388Z,16.85
2018-03-02T04:28:20.851Z,18.37
2018-03-02T04:30:50.722Z,16.48
2018-03-02T04:33:20.528Z,18.60
2018-03-02T04:35:50.316Z,16.75
2018-03-02T04:38:20.104Z,17.37
2018-03-02T04:40:50.038Z,16.23
2018-03-02T04:43:20.649Z,14.48
2018-03-02T04:45:50.744Z,17.30
2018-03-02T04:48:20.566Z,14.87
2018-03-02T04:50:50.380Z,17.20
2018-03-02T04:53:20.058Z,17.00
2018-03-02T04:55:49.818Z,17.67
2018-03-02T04:58:20.924Z,16.65
2018-03-02T05:00:50.726Z,13.18
2018-03-02T05:03:20.490Z,17.67
2018-03-02T05:05:50.389Z,16.92
2018-03-02T05:08:20.478Z,17.83
2018-03-02T05:10:50.214Z,14.77
2018-03-02T05:13:20.033Z,15.88
2018-03-02T05:15:49.745Z,17.10
2018-03-02T05:18:19.495Z,17.95
2018-03-02T05:20:49.211Z,18.37
2018-03-02T05:23:19.091Z,13.10
2018-03-02T05:25:49.553Z,17.35
2018-03-02T05:28:19.281Z,15.57
2018-03-02T05:30:49.396Z,17.75
2018-03-02T05:33:20.010Z,17.92
2018-03-02T05:35:49.804Z,14.65
2018-03-02T05:38:19.610Z,19.85
2018-03-02T05:40:49.979Z,18.62
2018-03-02T05:43:19.724Z,16.02
2018-03-02T05:45:50.294Z,18.80
2018-03-02T05:48:19.996Z,16.40
2018-03-02T05:50:57.312Z,17.80
2018-03-02T05:53:27.033Z,16.67
2018-03-02T05:55:57.318Z,17.12
2018-03-02T05:58:27.117Z,16.92
2018-03-02T06:00:56.940Z,18.65
2018-03-02T06:03:26.737Z,20.20
2018-03-02T06:05:56.677Z,19.17
2018-03-02T06:08:26.618Z,17.60
2018-03-02T06:10:56.476Z,16.48
2018-03-02T06:13:26.273Z,20.00
2018-03-02T06:15:57.049Z,23.30
2018-03-02T06:18:26.911Z,18.87
2018-03-02T06:20:56.942Z,17.12
2018-03-02T06:23:26.695Z,19.60
2018-03-02T06:25:56.489Z,19.95
2018-03-02T06:28:26.249Z,17.23
2018-03-02T06:30:56.041Z,17.70
2018-03-02T06:33:25.760Z,20.15
2018-03-02T06:35:55.682Z,20.85
2018-03-02T06:38:25.405Z,19.42
2018-03-02T06:40:55.273Z,21.17
2018-03-02T06:43:25.124Z,20.08
2018-03-02T06:45:55.825Z,20.60
2018-03-02T06:48:25.519Z,16.05
2018-03-02T06:50:55.253Z,15.02
2018-03-02T06:53:25.023Z,20.17
2018-03-02T06:55:54.872Z,16.25
2018-03-02T06:58:25.489Z,18.90
2018-03-02T07:00:55.533Z,17.62
2018-03-02T07:03:26.150Z,21.67
2018-03-02T07:05:56.116Z,20.45
2018-03-02T07:08:25.837Z,16.62
2018-03-02T07:10:55.612Z,21.55
2018-03-02T07:13:25.403Z,20.85
2018-03-02T07:15:55.256Z,20.40
2018-03-02T07:18:25.172Z,19.60
2018-03-02T07:20:55.479Z,20.83
2018-03-02T07:23:25.421Z,18.67
2018-03-02T07:25:55.422Z,22.55
2018-03-02T07:28:25.888Z,19.92
2018-03-02T07:30:55.613Z,20.48
2018-03-02T07:33:25.440Z,23.02
2018-03-02T07:35:55.281Z,22.92
2018-03-02T07:38:25.059Z,21.40
2018-03-02T07:40:55.701Z,21.33
2018-03-02T07:43:25.544Z,22.40
2018-03-02T07:45:55.411Z,22.58
2018-03-02T07:48:25.325Z,21.02
2018-03-02T07:50:55.082Z,23.35
2018-03-02T07:53:25.647Z,21.65
2018-03-02T07:55:55.456Z,19.92
2018-03-02T07:58:25.403Z,21.08
2018-03-02T08:00:55.131Z,22.02
2018-03-02T08:03:24.869Z,18.83
2018-03-02T08:05:55.417Z,22.10
2018-03-02T08:08:26.883Z,18.85
2018-03-02T08:10:56.778Z,22.55
2018-03-02T08:13:26.606Z,22.02
2018-03-02T08:15:56.404Z,23.50
2018-03-02T08:18:26.864Z,20.37
2018-03-02T08:20:56.560Z,22.45
2018-03-02T08:23:27.144Z,22.77
2018-03-02T08:25:56.921Z,18.33
2018-03-02T08:28:27.558Z,23.95
2018-03-02T08:30:58.213Z,23.17
2018-03-02T08:33:29.000Z,20.10
2018-03-02T08:35:58.762Z,22.45
2018-03-02T08:38:28.565Z,24.17
2018-03-02T08:40:59.198Z,21.73
2018-03-02T08:43:28.940Z,21.23
2018-03-02T08:45:58.707Z,21.62
2018-03-02T08:48:28.442Z,23.55
2018-03-02T08:50:58.255Z,20.52
2018-03-02T08:53:28.072Z,21.58
2018-03-02T08:55:57.793Z,19.58
2018-03-02T08:58:27.664Z,22.25
2018-03-02T09:00:57.402Z,23.58
2018-03-02T09:03:27.212Z,20.50
2018-03-02T09:05:57.198Z,23.15
2018-03-02T09:08:27.476Z,23.52
2018-03-02T09:10:57.552Z,23.20
2018-03-02T09:13:27.416Z,24.15
2018-03-02T09:15:57.130Z,23.92
2018-03-02T09:18:26.884Z,24.33
2018-03-02T09:20:56.841Z,20.25
2018-03-02T09:23:27.380Z,24.35
2018-03-02T09:25:57.887Z,24.65
2018-03-02T09:28:27.771Z,21.45
2018-03-02T09:30:57.501Z,23.73
2018-03-02T09:33:27.276Z,23.27
2018-03-02T09:35:57.143Z,24.40
2018-03-02T09:38:26.834Z,21.30
2018-03-02T09:40:57.416Z,24.20
2018-03-02T09:43:27.177Z,24.95
2018-03-02T09:45:56.951Z,24.27
2018-03-02T09:48:26.736Z,23.48
2018-03-02T09:50:57.381Z,24.95
2018-03-02T09:53:27.913Z,21.27
2018-03-02T09:55:58.530Z,20.85
2018-03-02T09:58:28.255Z,24.77
2018-03-02T10:00:57.963Z,23.73
2018-03-02T10:03:27.838Z,24.77
2018-03-02T10:05:58.338Z,24.15
2018-03-02T10:08:28.320Z,24.58
2018-03-02T10:10:57.999Z,24.63
2018-03-02T10:13:27.944Z,24.60
2018-03-02T10:15:58.558Z,24.92
2018-03-02T10:18:28.394Z,20.52
2018-03-02T10:20:58.256Z,20.12
2018-03-02T10:23:28.184Z,23.35
2018-03-02T10:25:58.257Z,21.87
2018-03-02T10:28:28.016Z,24.42
2018-03-02T10:30:57.769Z,21.75
2018-03-02T10:33:27.555Z,24.05
2018-03-02T10:35:58.047Z,23.50
2018-03-02T10:38:27.747Z,20.70
2018-03-02T10:40:57.492Z,24.42
2018-03-02T10:43:28.075Z,25.25
2018-03-02T10:45:57.913Z,24.17
2018-03-02T10:48:28.504Z,24.98
2018-03-02T10:50:58.320Z,25.77
2018-03-02T10:53:28.157Z,24.83
2018-03-02T10:56:00.760Z,19.27
2018-03-02T10:58:30.515Z,23.98
2018-03-02T11:01:05.011Z,19.95
2018-03-02T11:03:39.392Z,21.27
2018-03-02T11:06:09.231Z,24.77
2018-03-02T11:08:39.018Z,25.23
2018-03-02T11:11:09.656Z,24.63
2018-03-02T11:13:39.458Z,23.52
2018-03-02T11:16:09.253Z,22.17
2018-03-02T11:18:39.027Z,24.15
2018-03-02T11:21:08.782Z,24.45
2018-03-02T11:23:38.608Z,23.52
2018-03-02T11:26:08.472Z,22.27
2018-03-02T11:28:38.367Z,25.27
2018-03-02T11:31:08.248Z,23.58
2018-03-02T11:33:37.967Z,24.12
2018-03-02T11:36:07.737Z,23.38
2018-03-02T11:38:37.524Z,25.67
2018-03-02T11:41:08.097Z,25.60
2018-03-02T11:43:37.900Z,25.35
2018-03-02T11:46:08.476Z,24.67
2018-03-02T11:48:38.220Z,25.40
2018-03-02T11:51:08.890Z,24.67
2018-03-02T11:53:39.490Z,24.17
2018-03-02T11:56:09.299Z,24.58
2018-03-02T11:58:39.113Z,24.65
2018-03-02T12:01:08.844Z,25.37
2018-03-02T12:03:38.628Z,24.42
2018-03-02T12:06:09.242Z,23.65
2018-03-02T12:08:39.054Z,23.80
2018-03-02T12:11:09.122Z,24.02
2018-03-02T12:13:38.887Z,23.77
2018-03-02T12:16:08.776Z,25.42
2018-03-02T12:18:41.046Z,24.98
2018-03-02T12:21:11.726Z,25.08
2018-03-02T12:23:41.471Z,25.20
2018-03-02T12:26:11.277Z,24.30
2018-03-02T12:28:40.981Z,24.92
2018-03-02T12:31:10.823Z,21.45
2018-03-02T12:33:41.530Z,23.25
2018-03-02T12:36:12.097Z,25.75
2018-03-02T12:38:41.851Z,24.12
2018-03-02T12:41:11.753Z,24.60
2018-03-02T12:43:41.488Z,23.62
2018-03-02T12:46:11.236Z,23.83
2018-03-02T12:48:40.968Z,23.77
2018-03-02T12:51:10.700Z,21.25
2018-03-02T12:53:40.472Z,20.23
2018-03-02T12:56:10.377Z,21.70
2018-03-02T12:58:40.115Z,23.80
2018-03-02T13:01:09.956Z,21.65
2018-03-02T13:03:39.685Z,23.98
2018-03-02T13:06:09.628Z,24.12
2018-03-02T13:08:39.391Z,21.35
2018-03-02T13:11:09.102Z,24.20
2018-03-02T13:13:39.679Z,21.92
2018-03-02T13:16:09.475Z,19.10
2018-03-02T13:18:44.335Z,24.23
2018-03-02T13:21:14.259Z,23.15
2018-03-02T13:23:44.136Z,24.52
2018-03-02T13:26:27.132Z,22.87
2018-03-02T13:28:57.092Z,24.12
2018-03-02T13:31:26.856Z,23.20
2018-03-02T13:34:13.514Z,25.20
2018-03-02T13:36:43.290Z,24.67
2018-03-02T13:39:14.919Z,23.38
2018-03-02T13:42:05.257Z,24.40
2018-03-02T13:44:35.806Z,20.75
2018-03-02T13:47:05.771Z,23.55
2018-03-02T13:50:12.481Z,23.35
2018-03-02T13:52:42.272Z,23.95
2018-03-02T13:55:12.148Z,22.10
2018-03-02T13:58:01.381Z,22.95
2018-03-02T14:00:31.189Z,23.00
2018-03-02T14:04:19.325Z,24.83
2018-03-02T14:06:49.898Z,21.92
2018-03-02T14:09:19.705Z,25.62
2018-03-02T14:11:50.180Z,23.73
2018-03-02T14:14:20.278Z,24.77
2018-03-02T14:16:50.166Z,24.90
2018-03-02T14:19:20.415Z,24.35
2018-03-02T14:21:50.308Z,24.90
2018-03-02T14:24:20.007Z,23.42
2018-03-02T14:26:49.969Z,23.87
2018-03-02T14:29:19.686Z,24.60
2018-03-02T14:31:49.511Z,25.05
2018-03-02T14:34:19.248Z,23.80
2018-03-02T14:36:49.012Z,20.58
2018-03-02T14:39:18.854Z,23.98
2018-03-02T14:41:48.582Z,24.10
2018-03-02T14:44:18.639Z,24.70
2018-03-02T14:46:48.349Z,23.70
2018-03-02T14:49:18.920Z,24.05
2018-03-02T14:51:49.447Z,23.67
2018-03-02T14:54:19.217Z,24.60
2018-03-02T14:56:48.969Z,22.58
2018-03-02T14:59:18.848Z,24.17
2018-03-02T15:01:48.562Z,23.45
2018-03-02T15:04:19.106Z,24.75
2018-03-02T15:06:49.621Z,24.55
2018-03-02T15:09:19.423Z,23.40
2018-03-02T15:11:49.317Z,23.65
2018-03-02T15:14:19.001Z,23.98
2018-03-02T15:16:49.572Z,23.15
2018-03-02T15:19:19.298Z,23.38
2018-03-02T15:21:49.052Z,24.25
2018-03-02T15:24:18.900Z,23.90
2018-03-02T15:26:48.625Z,23.55
2018-03-02T15:29:18.392Z,23.87
2018-03-02T15:31:48.106Z,22.42
2018-03-02T15:34:17.874Z,23.20
2018-03-02T15:36:47.714Z,23.15
2018-03-02T15:39:17.508Z,23.33
2018-03-02T15:41:47.310Z,23.23
2018-03-02T15:44:17.070Z,22.85
2018-03-02T15:46:46.840Z,21.75
2018-03-02T15:49:16.718Z,23.85
2018-03-02T15:51:46.521Z,23.87
2018-03-02T15:54:16.241Z,20.08
2018-03-02T15:56:46.217Z,23.95
2018-03-02T15:59:16.789Z,23.98
2018-03-02T16:01:46.610Z,23.87
2018-03-02T16:04:17.313Z,24.77
2018-03-02T16:06:47.060Z,24.37
2018-03-02T16:09:16.804Z,23.27
2018-03-02T16:11:46.617Z,22.77
2018-03-02T16:14:16.615Z,22.90
2018-03-02T16:16:46.661Z,22.05
2018-03-02T16:19:16.420Z,22.87
2018-03-02T16:21:46.348Z,23.58
2018-03-02T16:24:16.148Z,22.92
2018-03-02T16:26:45.983Z,24.35
2018-03-02T16:29:15.832Z,23.75
2018-03-02T16:31:46.915Z,24.08
2018-03-02T16:34:17.615Z,23.12
2018-03-02T16:36:48.791Z,24.77
2018-03-02T16:39:18.630Z,26.10
2018-03-02T16:41:48.464Z,22.98
2018-03-02T16:44:19.482Z,22.73
2018-03-02T16:46:49.335Z,23.45
2018-03-02T16:49:19.041Z,24.20
2018-03-02T16:51:48.771Z,24.45
2018-03-02T16:54:18.622Z,23.45
2018-03-02T16:56:49.208Z,23.40
2018-03-02T16:59:20.220Z,24.58
2018-03-02T17:01:51.050Z,24.67
2018-03-02T17:04:21.838Z,24.17
2018-03-02T17:06:51.536Z,25.65
2018-03-02T17:09:21.450Z,23.80
2018-03-02T17:11:51.992Z,22.75
2018-03-02T17:14:22.603Z,23.80
2018-03-02T17:16:52.400Z,24.12
2018-03-02T17:19:22.705Z,24.25
2018-03-02T17:21:52.421Z,24.60
2018-03-02T17:24:23.129Z,24.48
2018-03-02T17:26:52.848Z,25.75
2018-03-02T17:29:22.683Z,25.33
2018-03-02T17:31:53.032Z,23.98
2018-03-02T17:34:23.548Z,25.85
2018-03-02T17:36:53.323Z,24.98
2018-03-02T17:39:23.124Z,25.80
2018-03-02T17:41:53.126Z,25.23
2018-03-02T17:44:23.025Z,26.25
2018-03-02T17:46:52.797Z,26.50
2018-03-02T17:49:23.383Z,25.65
2018-03-02T17:51:54.568Z,26.25
2018-03-02T17:54:24.402Z,25.23
2018-03-02T17:56:54.288Z,24.60
2018-03-02T17:59:24.114Z,26.02
2018-03-02T18:01:53.948Z,26.37
2018-03-02T18:04:23.744Z,26.10
2018-03-02T18:06:53.601Z,26.62
2018-03-02T18:09:23.489Z,24.95
2018-03-02T18:11:53.248Z,23.80
2018-03-02T18:14:23.033Z,26.83
2018-03-02T18:16:52.920Z,27.08
2018-03-02T18:19:22.670Z,26.40
2018-03-02T18:21:53.290Z,26.67
2018-03-02T18:24:23.117Z,26.15
2018-03-02T18:26:53.020Z,27.48
2018-03-02T18:29:23.198Z,26.55
2018-03-02T18:31:53.061Z,27.15
2018-03-02T18:34:22.861Z,26.73
2018-03-02T18:36:52.632Z,27.40
2018-03-02T18:39:22.479Z,26.77
2018-03-02T18:41:53.341Z,27.87
2018-03-02T18:44:23.242Z,26.92
2018-03-02T18:46:53.220Z,27.55
2018-03-02T18:49:23.039Z,28.08
2018-03-02T18:51:52.927Z,27.55
2018-03-02T18:54:23.705Z,28.80
2018-03-02T18:56:53.690Z,26.80
2018-03-02T18:59:23.464Z,27.15
2018-03-02T19:01:53.500Z,29.65
2018-03-02T19:04:23.329Z,27.62
2018-03-02T19:06:53.435Z,28.40
2018-03-02T19:09:23.560Z,30.98
2018-03-02T19:11:53.629Z,27.17
2018-03-02T19:14:23.340Z,29.25
2018-03-02T19:16:53.195Z,29.55
2018-03-02T19:19:23.771Z,29.55
2018-03-02T19:21:53.740Z,30.67
2018-03-02T19:24:23.560Z,30.00
2018-03-02T19:26:53.512Z,29.90
2018-03-02T19:29:23.340Z,29.58
2018-03-02T19:31:54.390Z,28.83
2018-03-02T19:34:24.221Z,30.60
2018-03-02T19:36:54.785Z,26.83
2018-03-02T19:39:26.088Z,29.20
2018-03-02T19:41:56.527Z,27.87
2018-03-02T19:44:26.336Z,27.92
2018-03-02T19:46:56.250Z,29.58
2018-03-02T19:49:26.555Z,26.60
2018-03-02T19:51:57.404Z,30.45
2018-03-02T19:54:28.067Z,26.92
2018-03-02T19:56:57.831Z,27.37
2018-03-02T19:59:27.700Z,28.38
2018-03-02T20:01:58.192Z,29.95
2018-03-02T20:04:28.127Z,26.67
2018-03-02T20:06:57.957Z,25.05
2018-03-02T20:09:27.814Z,26.73
2018-03-02T20:11:58.615Z,28.20
2018-03-02T20:14:28.361Z,27.90
2018-03-02T20:16:58.787Z,28.52
2018-03-02T20:19:28.593Z,26.10
2018-03-02T20:21:58.554Z,28.00
2018-03-02T20:24:28.529Z,28.75
2018-03-02T20:26:58.321Z,28.75
2018-03-02T20:29:29.245Z,29.60
2018-03-02T20:31:59.039Z,30.35
2018-03-02T20:34:29.114Z,30.55
2018-03-02T20:37:00.036Z,29.15
2018-03-02T20:39:29.821Z,28.17
2018-03-02T20:41:59.565Z,29.65
2018-03-02T20:44:29.485Z,30.00
2018-03-02T20:46:59.755Z,28.38
2018-03-02T20:49:30.234Z,29.92
2018-03-02T20:52:00.230Z,28.42
2018-03-02T20:54:30.090Z,30.02
2018-03-02T20:56:59.916Z,30.95
2018-03-02T20:59:29.660Z,31.00
2018-03-02T21:01:59.734Z,29.35
2018-03-02T21:04:30.581Z,28.65
2018-03-02T21:07:01.198Z,29.48
2018-03-02T21:09:31.316Z,29.15
2018-03-02T21:12:01.176Z,25.48
2018-03-02T21:14:31.798Z,27.87
2018-03-02T21:17:01.587Z,29.08
2018-03-02T21:19:31.316Z,30.42
2018-03-02T21:22:01.125Z,32.22
2018-03-02T21:24:30.872Z,30.88
2018-03-02T21:27:00.627Z,29.10
2018-03-02T21:29:31.259Z,31.95
2018-03-02T21:32:01.001Z,31.85
2018-03-02T21:34:31.545Z,30.95
2018-03-02T21:37:01.374Z,31.17
2018-03-02T21:39:31.143Z,32.47
2018-03-02T21:42:01.088Z,31.02
2018-03-02T21:44:30.886Z,34.25
2018-03-02T21:47:00.773Z,34.97
2018-03-02T21:49:31.325Z,34.92
2018-03-02T21:52:01.018Z,33.78
2018-03-02T21:54:30.916Z,30.88
2018-03-02T21:57:00.664Z,32.45
2018-03-02T21:59:30.444Z,35.65
2018-03-02T22:02:00.178Z,37.22
2018-03-02T22:04:30.369Z,36.03
2018-03-02T22:07:00.143Z,32.95
2018-03-02T22:09:29.967Z,34.75
2018-03-02T22:12:00.586Z,36.65
2018-03-02T22:14:30.459Z,36.67
2018-03-02T22:17:01.038Z,37.63
2018-03-02T22:19:30.806Z,38.28
2018-03-02T22:22:00.490Z,39.58
2018-03-02T22:24:30.279Z,38.03
2018-03-02T22:27:00.735Z,36.00
2018-03-02T22:29:31.092Z,35.25
2018-03-02T22:32:00.882Z,36.53
2018-03-02T22:34:31.750Z,40.67
2018-03-02T22:37:02.905Z,35.28
2018-03-02T22:39:32.772Z,38.47
2018-03-02T22:42:02.571Z,36.50
2018-03-02T22:44:32.377Z,35.17
2018-03-02T22:47:02.208Z,38.72
2018-03-02T22:49:32.951Z,40.22
2018-03-02T22:52:02.860Z,41.45
2018-03-02T22:54:33.135Z,37.08
2018-03-02T22:57:02.933Z,40.83
2018-03-02T22:59:33.680Z,41.92
2018-03-02T23:02:03.737Z,40.95
2018-03-02T23:04:33.540Z,40.33
2018-03-02T23:07:04.080Z,39.60
2018-03-02T23:09:33.985Z,42.45
2018-03-02T23:12:03.970Z,41.37
2018-03-02T23:14:34.063Z,44.30
2018-03-02T23:17:03.897Z,43.80
2018-03-02T23:19:34.058Z,43.58
2018-03-02T23:22:03.787Z,43.50
2018-03-02T23:24:33.580Z,41.03
2018-03-02T23:27:03.499Z,41.75
2018-03-02T23:29:33.215Z,43.55
2018-03-02T23:32:03.003Z,40.17
2018-03-02T23:34:32.848Z,44.40
2018-03-02T23:37:02.748Z,44.60
2018-03-02T23:39:32.871Z,42.80
2018-03-02T23:42:03.437Z,45.70
2018-03-02T23:44:33.129Z,44.15
2018-03-02T23:47:03.634Z,44.28
2018-03-02T23:49:33.488Z,42.17
2018-03-02T23:52:04.342Z,38.95
2018-03-02T23:54:34.333Z,43.15
2018-03-02T23:57:04.447Z,43.22
2018-03-02T23:59:34.221Z,46.88
